createdAt,value
2022-08-17T00:02:13.206Z,971.64
2022-08-17T00:08:50.572Z,971.63
2022-08-17T00:15:31.458Z,971.52
2022-08-17T00:22:29.717Z,971.5
2022-08-17T00:29:01.293Z,971.51
2022-08-17T00:35:25.425Z,971.42
2022-08-17T00:41:48.453Z,971.36
2022-08-17T00:48:31.165Z,971.42
2022-08-17T00:55:14.542Z,971.43
2022-08-17T01:02:04.689Z,971.4
2022-08-17T01:08:44.673Z,971.35
2022-08-17T01:15:33.442Z,971.33
2022-08-17T01:22:18.878Z,971.38
2022-08-17T01:28:56.298Z,971.37
2022-08-17T01:35:33.541Z,971.36
2022-08-17T01:42:23.564Z,971.4
2022-08-17T01:49:13.146Z,971.34
2022-08-17T01:55:57.972Z,971.4
2022-08-17T02:02:38.571Z,971.48
2022-08-17T02:09:05.131Z,971.48
2022-08-17T02:15:34.582Z,971.46
2022-08-17T02:22:06.572Z,971.43
2022-08-17T02:28:44.469Z,971.33
2022-08-17T02:35:24.558Z,971.38
2022-08-17T02:41:49.500Z,971.39
2022-08-17T02:48:35.842Z,971.35
2022-08-17T02:55:06.597Z,971.48
2022-08-17T03:01:37.345Z,971.54
2022-08-17T03:08:06.593Z,972.07
2022-08-17T03:14:42.599Z,971.92
2022-08-17T03:21:17.485Z,971.83
2022-08-17T03:27:57.650Z,971.83
2022-08-17T03:34:40.689Z,971.74
2022-08-17T03:41:13.545Z,971.7
2022-08-17T03:47:43.821Z,971.67
2022-08-17T03:54:10.625Z,971.57
2022-08-17T04:00:46.644Z,971.38
2022-08-17T04:07:27.636Z,971.25
2022-08-17T04:14:04.711Z,971.09
2022-08-17T04:20:30.961Z,970.96
2022-08-17T04:27:26.649Z,970.92
2022-08-17T04:34:06.975Z,971.02
2022-08-17T04:40:51.817Z,971.03
2022-08-17T04:47:43.536Z,971.03
2022-08-17T04:54:17.063Z,971.13
2022-08-17T05:00:48.320Z,971.12
2022-08-17T05:07:31.650Z,971.21
2022-08-17T05:14:09.480Z,971.16
2022-08-17T05:20:35.063Z,971.04
2022-08-17T05:27:19.800Z,971.02
2022-08-17T05:33:53.072Z,970.97
2022-08-17T05:40:21.626Z,970.9
2022-08-17T05:47:11.289Z,970.85
2022-08-17T05:54:03.730Z,970.94
2022-08-17T06:01:17.526Z,970.88
2022-08-17T06:08:00.955Z,971
2022-08-17T06:15:03.062Z,971.13
2022-08-17T06:21:59.650Z,971.3
2022-08-17T06:29:19.082Z,971.37
2022-08-17T06:36:10.279Z,971.43
2022-08-17T06:43:19.077Z,971.51
2022-08-17T06:50:25.444Z,971.57
2022-08-17T06:57:42.719Z,971.52
2022-08-17T07:04:39.042Z,971.47
2022-08-17T07:11:22.014Z,971.47
2022-08-17T07:18:25.902Z,971.42
2022-08-17T07:25:21.116Z,971.34
2022-08-17T07:32:03.850Z,971.36
2022-08-17T07:38:45.991Z,971.45
2022-08-17T07:45:32.818Z,971.65
2022-08-17T07:52:47.601Z,971.6
2022-08-17T07:59:43.713Z,971.6
2022-08-17T08:06:33.230Z,971.65
2022-08-17T08:13:39.923Z,971.66
2022-08-17T08:20:51.625Z,971.72
2022-08-17T08:27:52.086Z,971.75
2022-08-17T08:35:03.469Z,971.95
2022-08-17T08:41:56.692Z,972.04
2022-08-17T08:48:59.186Z,972.15
2022-08-17T08:56:14.132Z,972.31
2022-08-17T09:03:51.422Z,972.31
2022-08-17T09:10:51.275Z,972.3
2022-08-17T09:25:27.744Z,972.17
2022-08-17T09:32:27.934Z,972.3
2022-08-17T09:39:32.027Z,972.23
2022-08-17T09:46:40.966Z,972.27
2022-08-17T09:53:47.139Z,972.12
2022-08-17T10:00:58.852Z,971.99
2022-08-17T10:08:09.118Z,971.86
2022-08-17T10:15:20.986Z,971.66
2022-08-17T10:22:38.861Z,971.8
2022-08-17T10:29:50.339Z,971.98
2022-08-17T10:37:13.227Z,972.17
2022-08-17T10:44:37.617Z,972.34
2022-08-17T10:51:49.439Z,972.46
2022-08-17T10:58:49.646Z,972.35
2022-08-17T11:05:31.798Z,972.37
2022-08-17T11:12:43.236Z,972.35
2022-08-17T11:19:56.765Z,972.33
2022-08-17T11:27:13.115Z,972.47
2022-08-17T11:34:12.874Z,972.43
2022-08-17T11:41:13.675Z,972.34
2022-08-17T11:48:28.060Z,972.38
2022-08-17T11:55:45.888Z,972.38
2022-08-17T12:02:55.205Z,972.44
2022-08-17T12:09:54.892Z,972.35
2022-08-17T12:17:00.649Z,972.29
2022-08-17T12:23:52.288Z,972.26
2022-08-17T12:31:00.150Z,972.21
2022-08-17T12:37:53.541Z,972.17
2022-08-17T12:44:56.825Z,972.19
2022-08-17T12:51:41.060Z,972.13
2022-08-17T12:58:45.025Z,972.13
2022-08-17T13:05:52.673Z,972.01
2022-08-17T13:12:38.987Z,971.93
2022-08-17T13:19:41.967Z,971.91
2022-08-17T13:26:32.885Z,971.91
2022-08-17T13:33:43.542Z,971.88
2022-08-17T13:40:36.367Z,971.87
2022-08-17T13:47:28.324Z,971.79
2022-08-17T13:54:13.788Z,971.73
2022-08-17T14:01:14.492Z,971.71
2022-08-17T14:07:51.618Z,971.64
2022-08-17T14:14:46.219Z,971.58
2022-08-17T14:21:19.395Z,971.56
2022-08-17T14:27:55.462Z,971.43
2022-08-17T14:34:26.162Z,971.46
2022-08-17T14:41:01.873Z,971.53
2022-08-17T14:47:34.944Z,971.45
2022-08-17T14:54:05.130Z,971.48
2022-08-17T15:00:46.951Z,971.37
2022-08-17T15:07:31.824Z,971.38
2022-08-17T15:14:03.890Z,971.38
2022-08-17T15:20:37.372Z,971.39
2022-08-17T15:27:09.259Z,971.51
2022-08-17T15:33:40.318Z,971.55
2022-08-17T15:40:24.007Z,971.49
2022-08-17T15:46:57.990Z,971.43
2022-08-17T15:53:37.911Z,971.4
2022-08-17T16:00:06.999Z,971.32
2022-08-17T16:06:36.931Z,971.32
2022-08-17T16:13:18.386Z,971.32
2022-08-17T16:19:45.898Z,971.48
2022-08-17T16:26:22.992Z,971.56
2022-08-17T16:33:07.014Z,971.56
2022-08-17T16:39:41.393Z,971.59
2022-08-17T16:46:22.404Z,971.54
2022-08-17T16:52:47.039Z,971.49
2022-08-17T16:59:39.476Z,971.46
2022-08-17T17:06:27.836Z,971.5
2022-08-17T17:13:33.749Z,971.55
2022-08-17T17:20:15.909Z,971.55
2022-08-17T17:27:21.932Z,971.49
2022-08-17T17:34:32.035Z,971.42
2022-08-17T17:41:31.936Z,971.34
2022-08-17T17:48:27.968Z,971.39
2022-08-17T17:55:26.538Z,971.34
2022-08-17T18:02:40.142Z,971.29
2022-08-17T18:09:54.126Z,971.29
2022-08-17T18:17:04.103Z,971.46
2022-08-17T18:23:41.237Z,971.62
2022-08-17T18:30:36.366Z,971.68
2022-08-17T18:37:24.225Z,971.7
2022-08-17T18:44:15.067Z,971.83
2022-08-17T18:51:13.450Z,971.95
2022-08-17T18:58:19.073Z,971.98
2022-08-17T19:05:14.214Z,972.06
2022-08-17T19:12:11.102Z,972.27
2022-08-17T19:19:08.973Z,972.38
2022-08-17T19:26:51.606Z,972.49
2022-08-17T19:33:22.075Z,972.51
2022-08-17T19:40:42.060Z,972.59
2022-08-17T19:47:58.634Z,972.59
2022-08-17T19:55:06.195Z,972.62
2022-08-17T20:01:55.306Z,972.62
2022-08-17T20:08:50.760Z,972.63
2022-08-17T20:16:06.201Z,972.68
2022-08-17T20:23:00.169Z,972.67
2022-08-17T20:30:05.289Z,972.68
2022-08-17T20:37:07.731Z,972.59
2022-08-17T20:44:08.750Z,972.69
2022-08-17T20:51:02.655Z,972.74
2022-08-17T20:58:02.308Z,972.75
2022-08-17T21:05:10.741Z,972.91
2022-08-17T21:12:07.140Z,972.98
2022-08-17T21:18:59.141Z,972.98
2022-08-17T21:26:01.797Z,973
2022-08-17T21:32:52.780Z,972.99
2022-08-17T21:39:51.757Z,972.99
2022-08-17T21:46:48.439Z,973.05
2022-08-17T21:53:33.825Z,973.18
2022-08-17T22:00:21.481Z,973.11
2022-08-17T22:07:22.694Z,973.08
2022-08-17T22:14:21.624Z,973.04
2022-08-17T22:21:01.513Z,973.12
2022-08-17T22:27:48.695Z,973.16
2022-08-17T22:34:39.671Z,973.14
2022-08-17T22:41:38.070Z,973.14
2022-08-17T22:48:34.200Z,973.3
2022-08-17T22:55:18.476Z,973.38
2022-08-17T23:01:55.962Z,973.38
2022-08-17T23:08:39.204Z,973.45
2022-08-17T23:15:17.145Z,973.5
2022-08-17T23:21:41.077Z,973.52
2022-08-17T23:28:19.531Z,973.53
2022-08-17T23:34:55.208Z,973.58
2022-08-17T23:41:21.117Z,973.58
2022-08-17T23:48:02.830Z,973.54
2022-08-17T23:54:53.146Z,973.57
